createdAt,value
2019-01-19T00:02:01.576Z,34.03
2019-01-19T00:06:48.179Z,34.83
2019-01-19T00:09:34.904Z,32.30
2019-01-19T00:12:34.744Z,26.87
2019-01-19T00:15:20.800Z,26.87
2019-01-19T00:18:16.475Z,30.72
2019-01-19T00:23:02.218Z,35.90
2019-01-19T00:25:48.061Z,30.45
2019-01-19T00:28:27.179Z,29.07
2019-01-19T00:32:04.039Z,30.05
2019-01-19T00:34:46.792Z,25.95
2019-01-19T00:37:27.599Z,22.37
2019-01-19T00:42:13.547Z,26.85
2019-01-19T00:45:00.441Z,21.50
2019-01-19T00:48:39.103Z,22.93
2019-01-19T00:51:35.063Z,27.55
2019-01-19T00:54:14.091Z,24.47
2019-01-19T00:56:52.734Z,23.55
2019-01-19T00:59:25.379Z,25.02
2019-01-19T01:02:06.223Z,21.62
2019-01-19T01:04:43.265Z,22.93
2019-01-19T01:08:22.955Z,21.50
2019-01-19T01:11:00.855Z,26.27
2019-01-19T01:13:50.125Z,22.48
2019-01-19T01:18:41.967Z,22.15
2019-01-19T01:22:06.357Z,24.23
2019-01-19T01:24:48.482Z,23.67
2019-01-19T01:27:32.303Z,23.83
2019-01-19T01:30:25.048Z,28.92
2019-01-19T01:33:50.904Z,26.97
2019-01-19T01:36:35.387Z,26.35
2019-01-19T01:41:19.134Z,28.95
2019-01-19T01:44:02.672Z,26.85
2019-01-19T01:46:55.670Z,25.80
2019-01-19T01:49:38.240Z,30.12
2019-01-19T01:52:13.215Z,28.20
2019-01-19T01:55:54.502Z,24.35
2019-01-19T01:58:33.303Z,29.15
2019-01-19T02:03:32.950Z,26.87
2019-01-19T02:06:19.043Z,29.20
2019-01-19T02:09:29.959Z,27.13
2019-01-19T02:13:14.176Z,29.07
2019-01-19T02:16:11.968Z,28.25
2019-01-19T02:21:01.944Z,22.67
2019-01-19T02:23:54.793Z,23.70
2019-01-19T02:26:40.683Z,25.88
2019-01-19T02:29:21.347Z,27.82
2019-01-19T02:32:13.644Z,23.85
2019-01-19T02:35:03.674Z,27.32
2019-01-19T02:37:41.888Z,26.55
2019-01-19T02:40:22.957Z,30.52
2019-01-19T02:43:12.561Z,24.52
2019-01-19T02:46:00.536Z,24.85
2019-01-19T02:48:46.249Z,23.85
2019-01-19T02:51:30.038Z,26.55
2019-01-19T02:56:20.199Z,24.32
2019-01-19T03:00:04.149Z,26.87
2019-01-19T03:04:54.977Z,22.27
2019-01-19T03:07:49.602Z,23.10
2019-01-19T03:10:37.543Z,19.60
2019-01-19T03:13:18.923Z,21.33
2019-01-19T03:15:58.879Z,24.92
2019-01-19T03:19:11.919Z,26.57
2019-01-19T03:22:10.955Z,24.20
2019-01-19T03:25:13.328Z,26.05
2019-01-19T03:27:53.323Z,24.60
2019-01-19T03:30:36.344Z,24.37
2019-01-19T03:33:21.170Z,20.12
2019-01-19T03:37:17.813Z,25.75
2019-01-19T03:41:01.762Z,22.70
2019-01-19T03:44:02.601Z,27.75
2019-01-19T03:46:51.823Z,22.25
2019-01-19T03:50:00.285Z,23.25
2019-01-19T03:52:46.478Z,23.38
2019-01-19T03:55:35.034Z,22.42
2019-01-19T03:58:16.007Z,22.98
2019-01-19T04:01:01.531Z,24.70
2019-01-19T04:04:49.600Z,25.08
2019-01-19T04:07:28.925Z,20.68
2019-01-19T04:10:07.130Z,23.90
2019-01-19T04:12:49.042Z,24.37
2019-01-19T04:15:34.002Z,22.93
2019-01-19T04:18:12.383Z,18.50
2019-01-19T04:21:33.514Z,21.68
2019-01-19T04:24:06.727Z,19.12
2019-01-19T04:26:40.893Z,22.95
2019-01-19T04:29:11.250Z,21.37
2019-01-19T04:31:41.628Z,24.02
2019-01-19T04:34:12.209Z,18.92
2019-01-19T04:36:42.047Z,24.52
2019-01-19T04:39:12.723Z,25.00
2019-01-19T04:41:43.192Z,30.45
2019-01-19T04:44:13.511Z,25.43
2019-01-19T04:46:43.809Z,26.95
2019-01-19T04:49:14.429Z,26.10
2019-01-19T04:51:44.899Z,27.07
2019-01-19T04:54:15.199Z,28.32
2019-01-19T04:56:45.384Z,28.95
2019-01-19T04:59:15.803Z,29.63
2019-01-19T05:01:46.309Z,26.45
2019-01-19T05:04:16.744Z,27.05
2019-01-19T05:06:47.152Z,22.20
2019-01-19T05:09:17.563Z,25.23
2019-01-19T05:11:48.108Z,27.10
2019-01-19T05:14:18.526Z,26.60
2019-01-19T05:16:48.992Z,24.90
2019-01-19T05:19:19.604Z,23.32
2019-01-19T05:21:50.091Z,24.72
2019-01-19T05:24:20.597Z,23.32
2019-01-19T05:26:50.808Z,24.02
2019-01-19T05:29:21.205Z,19.80
2019-01-19T05:31:51.414Z,21.93
2019-01-19T05:34:21.259Z,24.32
2019-01-19T05:36:51.629Z,26.15
2019-01-19T05:39:22.098Z,24.52
2019-01-19T05:41:52.451Z,24.77
2019-01-19T05:44:22.740Z,23.32
2019-01-19T05:46:53.251Z,26.57
2019-01-19T05:49:23.737Z,23.60
2019-01-19T05:51:54.206Z,18.42
2019-01-19T05:54:23.923Z,22.87
2019-01-19T05:56:54.232Z,25.00
2019-01-19T05:59:24.657Z,41.30
2019-01-19T06:01:55.125Z,36.20
2019-01-19T06:04:25.540Z,39.83
2019-01-19T06:06:55.984Z,45.20
2019-01-19T06:09:26.608Z,48.38
2019-01-19T06:11:57.186Z,44.67
2019-01-19T06:14:27.756Z,53.05
2019-01-19T06:16:58.069Z,38.98
2019-01-19T06:19:28.627Z,51.68
2019-01-19T06:22:00.475Z,47.40
2019-01-19T06:24:31.015Z,49.98
2019-01-19T06:27:01.312Z,53.95
2019-01-19T06:29:31.744Z,47.00
2019-01-19T06:32:02.020Z,48.68
2019-01-19T06:34:32.613Z,49.05
2019-01-19T06:37:04.308Z,66.82
2019-01-19T06:39:33.843Z,78.52
2019-01-19T06:42:04.312Z,85.45
2019-01-19T06:44:34.712Z,83.92
2019-01-19T06:47:05.228Z,88.97
2019-01-19T06:49:35.777Z,78.25
2019-01-19T06:52:06.080Z,86.75
2019-01-19T06:54:35.791Z,79.47
2019-01-19T06:57:05.887Z,80.50
2019-01-19T06:59:36.324Z,79.72
2019-01-19T07:02:06.840Z,77.87
2019-01-19T07:04:37.308Z,89.60
2019-01-19T07:07:07.649Z,84.75
2019-01-19T07:09:38.071Z,77.97
2019-01-19T07:12:08.706Z,74.77
2019-01-19T07:14:38.992Z,74.90
2019-01-19T07:17:09.323Z,73.67
2019-01-19T07:19:39.167Z,79.97
2019-01-19T07:22:09.659Z,78.28
2019-01-19T07:24:40.302Z,66.02
2019-01-19T07:27:10.691Z,74.17
2019-01-19T07:29:41.063Z,101.53
2019-01-19T07:32:11.840Z,113.28
2019-01-19T07:34:42.199Z,94.40
2019-01-19T07:37:12.210Z,67.58
2019-01-19T07:39:42.439Z,64.40
2019-01-19T07:42:12.359Z,75.97
2019-01-19T07:44:42.807Z,75.83
2019-01-19T07:47:13.311Z,67.85
2019-01-19T07:49:43.110Z,64.60
2019-01-19T07:52:12.764Z,64.67
2019-01-19T07:54:43.177Z,69.42
2019-01-19T07:57:13.593Z,55.15
2019-01-19T07:59:44.108Z,72.62
2019-01-19T08:02:14.405Z,75.83
2019-01-19T08:04:44.735Z,95.40
2019-01-19T08:07:17.389Z,104.05
2019-01-19T08:09:45.067Z,111.72
2019-01-19T08:12:15.219Z,84.20
2019-01-19T08:14:45.544Z,105.50
2019-01-19T08:17:15.843Z,107.67
2019-01-19T08:19:46.533Z,104.10
2019-01-19T08:22:17.029Z,106.83
2019-01-19T08:24:47.544Z,112.57
2019-01-19T08:27:18.059Z,154.90
2019-01-19T08:29:48.531Z,148.53
2019-01-19T08:32:18.836Z,165.28
2019-01-19T08:34:49.295Z,185.93
2019-01-19T08:37:24.408Z,152.70
2019-01-19T08:39:50.075Z,176.80
2019-01-19T08:42:20.396Z,152.53
2019-01-19T08:44:50.912Z,128.77
2019-01-19T08:47:21.392Z,134.17
2019-01-19T08:49:51.956Z,118.50
2019-01-19T08:52:22.440Z,110.57
2019-01-19T08:54:52.852Z,105.53
2019-01-19T08:57:23.231Z,106.70
2019-01-19T08:59:53.865Z,104.07
2019-01-19T09:02:24.144Z,65.33
2019-01-19T09:04:54.580Z,52.33
2019-01-19T09:07:33.262Z,43.43
2019-01-19T09:09:55.565Z,53.63
2019-01-19T09:12:25.912Z,51.37
2019-01-19T09:14:56.816Z,67.03
2019-01-19T09:17:27.007Z,133.80
2019-01-19T09:19:57.535Z,119.50
2019-01-19T09:22:28.086Z,89.97
2019-01-19T09:24:58.511Z,83.60
2019-01-19T09:27:28.907Z,65.53
2019-01-19T09:29:59.458Z,60.37
2019-01-19T09:32:29.266Z,54.63
2019-01-19T09:34:59.713Z,47.73
2019-01-19T09:37:30.116Z,48.50
2019-01-19T09:40:00.584Z,47.83
2019-01-19T09:42:31.068Z,43.57
2019-01-19T09:45:01.499Z,45.20
2019-01-19T09:47:31.959Z,40.90
2019-01-19T09:50:02.344Z,43.53
2019-01-19T09:52:32.884Z,40.87
2019-01-19T09:55:02.742Z,44.83
2019-01-19T09:57:33.115Z,43.40
2019-01-19T10:00:03.670Z,53.30
2019-01-19T10:02:34.180Z,51.97
2019-01-19T10:05:05.696Z,45.17
2019-01-19T10:07:36.152Z,47.73
2019-01-19T10:10:07.667Z,53.57
2019-01-19T10:12:38.145Z,48.00
2019-01-19T10:15:10.051Z,39.37
2019-01-19T10:17:40.615Z,41.07
2019-01-19T10:20:13.915Z,35.63
2019-01-19T10:22:44.327Z,44.10
2019-01-19T10:25:15.248Z,35.93
2019-01-19T10:27:45.860Z,25.57
2019-01-19T10:30:18.513Z,25.03
2019-01-19T10:32:49.283Z,25.33
2019-01-19T10:35:19.780Z,24.43
2019-01-19T10:37:56.242Z,22.23
2019-01-19T10:40:20.819Z,21.67
2019-01-19T10:42:51.301Z,24.40
2019-01-19T10:45:23.460Z,23.50
2019-01-19T10:47:53.876Z,24.67
2019-01-19T10:50:24.305Z,24.50
2019-01-19T10:52:54.838Z,24.43
2019-01-19T10:55:25.457Z,28.30
2019-01-19T10:57:55.729Z,24.40
2019-01-19T11:00:28.183Z,28.40
2019-01-19T11:02:59.199Z,25.73
2019-01-19T11:05:29.879Z,25.57
2019-01-19T11:08:04.017Z,30.03
2019-01-19T11:10:31.955Z,25.03
2019-01-19T11:13:02.505Z,22.53
2019-01-19T11:15:33.340Z,21.70
2019-01-19T11:18:03.952Z,19.23
2019-01-19T11:20:34.487Z,16.30
2019-01-19T11:23:05.169Z,17.43
2019-01-19T11:25:35.716Z,21.03
2019-01-19T11:28:06.292Z,15.73
2019-01-19T11:30:36.507Z,17.77
2019-01-19T11:33:07.235Z,16.80
2019-01-19T11:35:37.699Z,16.40
2019-01-19T11:38:11.940Z,5.63
2019-01-19T11:40:39.547Z,16.07
2019-01-19T11:43:11.203Z,11.27
2019-01-19T11:45:41.056Z,11.37
2019-01-19T11:48:11.576Z,17.00
2019-01-19T11:50:41.999Z,14.40
2019-01-19T11:53:12.355Z,17.37
2019-01-19T11:55:42.676Z,13.30
2019-01-19T11:58:12.972Z,12.17
2019-01-19T12:00:43.420Z,22.70
2019-01-19T12:03:13.996Z,17.67
2019-01-19T12:05:44.575Z,15.60
2019-01-19T12:08:19.443Z,14.87
2019-01-19T12:10:45.732Z,12.13
2019-01-19T12:13:16.076Z,16.10
2019-01-19T12:15:46.667Z,16.33
2019-01-19T12:18:17.038Z,17.23
2019-01-19T12:20:49.362Z,19.07
2019-01-19T12:23:19.873Z,16.93
2019-01-19T12:25:49.677Z,17.00
2019-01-19T12:28:19.882Z,18.07
2019-01-19T12:30:51.540Z,17.77
2019-01-19T12:33:20.830Z,13.97
2019-01-19T12:35:51.353Z,12.77
2019-01-19T12:38:26.814Z,15.63
2019-01-19T12:40:52.579Z,17.03
2019-01-19T12:43:24.348Z,15.37
2019-01-19T12:45:58.400Z,16.13
2019-01-19T12:48:28.845Z,14.53
2019-01-19T12:50:59.399Z,16.73
2019-01-19T12:53:30.041Z,14.63
2019-01-19T12:56:00.464Z,18.20
2019-01-19T12:58:30.655Z,12.33
2019-01-19T13:01:00.977Z,17.00
2019-01-19T13:03:31.439Z,16.50
2019-01-19T13:06:46.369Z,16.17
2019-01-19T13:09:20.875Z,15.37
2019-01-19T13:13:06.568Z,12.30
2019-01-19T13:17:52.429Z,16.43
2019-01-19T13:20:33.576Z,11.80
2019-01-19T13:23:29.736Z,15.10
2019-01-19T13:26:22.544Z,23.83
2019-01-19T13:31:17.138Z,28.73
2019-01-19T13:34:31.303Z,29.17
2019-01-19T13:37:43.135Z,24.93
2019-01-19T13:40:32.151Z,25.63
2019-01-19T13:45:49.424Z,18.70
2019-01-19T13:49:48.056Z,14.93
2019-01-19T13:52:27.022Z,19.03
2019-01-19T13:55:07.932Z,16.87
2019-01-19T13:57:55.509Z,21.27
2019-01-19T14:00:40.178Z,41.03
2019-01-19T14:04:26.441Z,31.07
2019-01-19T14:07:11.458Z,31.50
2019-01-19T14:10:07.627Z,20.97
2019-01-19T14:13:29.652Z,38.57
2019-01-19T14:18:14.972Z,47.77
2019-01-19T14:21:07.700Z,42.27
2019-01-19T14:23:47.885Z,32.87
2019-01-19T14:26:34.673Z,34.13
2019-01-19T14:29:17.740Z,51.73
2019-01-19T14:32:03.540Z,90.53
2019-01-19T14:34:49.101Z,99.07
2019-01-19T14:38:44.011Z,97.50
2019-01-19T14:44:36.265Z,75.70
2019-01-19T14:47:46.216Z,68.63
2019-01-19T14:50:31.953Z,80.87
2019-01-19T14:54:10.587Z,93.00
2019-01-19T14:56:56.315Z,88.10
2019-01-19T14:59:33.808Z,95.00
2019-01-19T15:02:32.560Z,182.27
2019-01-19T15:05:10.582Z,149.50
2019-01-19T15:12:01.244Z,155.13
2019-01-19T15:15:10.695Z,96.20
2019-01-19T15:18:24.000Z,101.37
2019-01-19T15:21:04.726Z,145.23
2019-01-19T15:24:18.103Z,105.93
2019-01-19T15:26:59.814Z,146.37
2019-01-19T15:29:48.914Z,82.77
2019-01-19T15:32:32.144Z,97.67
2019-01-19T15:36:24.874Z,62.67
2019-01-19T15:39:44.579Z,69.67
2019-01-19T15:44:29.255Z,100.10
2019-01-19T15:48:20.986Z,121.35
2019-01-19T15:51:05.951Z,168.75
2019-01-19T15:53:44.354Z,227.20
2019-01-19T15:56:41.481Z,127.82
2019-01-19T15:59:28.427Z,139.82
2019-01-19T16:02:36.131Z,131.07
2019-01-19T16:05:47.243Z,101.55
2019-01-19T16:08:28.461Z,90.53
2019-01-19T16:11:10.835Z,67.67
2019-01-19T16:15:55.766Z,68.87
2019-01-19T16:18:43.588Z,177.45
2019-01-19T16:21:21.952Z,111.22
2019-01-19T16:25:06.658Z,84.67
2019-01-19T16:27:53.200Z,83.92
2019-01-19T16:30:38.205Z,94.17
2019-01-19T16:33:24.740Z,106.12
2019-01-19T16:36:17.516Z,109.70
2019-01-19T16:38:59.648Z,112.17
2019-01-19T16:41:46.663Z,106.58
2019-01-19T16:45:01.382Z,89.03
2019-01-19T16:48:00.851Z,77.67
2019-01-19T16:52:45.406Z,81.02
2019-01-19T16:55:58.739Z,73.90
2019-01-19T16:59:44.063Z,55.75
2019-01-19T17:02:22.945Z,58.50
2019-01-19T17:05:19.487Z,52.95
2019-01-19T17:08:35.691Z,56.02
2019-01-19T17:11:20.035Z,59.80
2019-01-19T17:17:05.639Z,73.10
2019-01-19T17:19:48.251Z,75.90
2019-01-19T17:22:37.177Z,95.97
2019-01-19T17:25:19.185Z,90.87
2019-01-19T17:28:45.039Z,108.60
2019-01-19T17:31:57.547Z,168.80
2019-01-19T17:34:54.393Z,197.55
2019-01-19T17:37:33.470Z,165.85
2019-01-19T17:40:20.539Z,147.02
2019-01-19T17:43:05.506Z,167.62
2019-01-19T17:47:54.174Z,106.17
2019-01-19T17:51:50.207Z,121.30
2019-01-19T17:56:31.162Z,137.95
2019-01-19T17:59:13.448Z,126.87
2019-01-19T18:01:53.103Z,121.60
2019-01-19T18:04:31.008Z,113.03
2019-01-19T18:07:13.964Z,115.55
2019-01-19T18:12:00.303Z,107.92
2019-01-19T18:16:48.950Z,114.10
2019-01-19T18:19:58.793Z,102.35
2019-01-19T18:23:46.609Z,81.10
2019-01-19T18:26:32.894Z,75.03
2019-01-19T18:29:17.796Z,92.05
2019-01-19T18:32:13.357Z,107.12
2019-01-19T18:34:57.971Z,149.50
2019-01-19T18:39:43.480Z,205.00
2019-01-19T18:42:22.472Z,139.18
2019-01-19T18:45:02.303Z,125.97
2019-01-19T18:48:14.855Z,139.00
2019-01-19T18:51:13.132Z,212.72
2019-01-19T18:54:02.849Z,216.00
2019-01-19T18:57:41.540Z,190.82
2019-01-19T19:00:26.245Z,135.43
2019-01-19T19:03:07.228Z,115.62
2019-01-19T19:08:20.799Z,116.62
2019-01-19T19:12:05.947Z,108.80
2019-01-19T19:14:51.152Z,127.85
2019-01-19T19:17:48.067Z,115.37
2019-01-19T19:20:37.084Z,92.22
2019-01-19T19:23:51.543Z,103.38
2019-01-19T19:28:27.485Z,93.72
2019-01-19T19:31:12.453Z,73.15
2019-01-19T19:33:48.172Z,83.80
2019-01-19T19:37:40.661Z,92.25
2019-01-19T19:40:34.501Z,107.78
2019-01-19T19:43:15.121Z,170.35
2019-01-19T19:45:55.278Z,174.25
2019-01-19T19:49:40.527Z,201.73
2019-01-19T19:52:11.496Z,105.37
2019-01-19T19:54:45.098Z,100.55
2019-01-19T19:57:15.317Z,107.78
2019-01-19T19:59:45.570Z,110.32
2019-01-19T20:02:16.129Z,104.92
2019-01-19T20:04:45.687Z,89.80
2019-01-19T20:07:16.126Z,83.60
2019-01-19T20:09:46.632Z,83.03
2019-01-19T20:12:16.998Z,81.22
2019-01-19T20:14:47.368Z,66.40
2019-01-19T20:17:17.851Z,60.30
2019-01-19T20:19:48.347Z,61.65
2019-01-19T20:22:18.807Z,87.08
2019-01-19T20:24:49.017Z,115.65
2019-01-19T20:27:19.557Z,106.07
2019-01-19T20:29:50.140Z,99.30
2019-01-19T20:32:20.616Z,205.20
2019-01-19T20:34:51.102Z,241.12
2019-01-19T20:37:21.595Z,216.05
2019-01-19T20:39:51.733Z,180.85
2019-01-19T20:42:22.176Z,177.90
2019-01-19T20:44:52.703Z,98.90
2019-01-19T20:47:23.104Z,96.12
2019-01-19T20:49:53.550Z,114.28
2019-01-19T20:52:23.928Z,76.17
2019-01-19T20:54:54.419Z,94.47
2019-01-19T20:57:24.732Z,122.40
2019-01-19T20:59:55.024Z,122.10
2019-01-19T21:02:25.287Z,83.97
2019-01-19T21:04:55.912Z,78.83
2019-01-19T21:07:26.239Z,73.05
2019-01-19T21:09:56.695Z,81.55
2019-01-19T21:12:27.188Z,81.10
2019-01-19T21:14:57.705Z,80.83
2019-01-19T21:17:28.089Z,79.45
2019-01-19T21:19:58.533Z,73.92
2019-01-19T21:22:28.868Z,58.25
2019-01-19T21:24:59.288Z,56.73
2019-01-19T21:27:29.618Z,53.45
2019-01-19T21:30:00.171Z,60.48
2019-01-19T21:32:30.110Z,61.45
2019-01-19T21:35:00.373Z,57.45
2019-01-19T21:37:30.676Z,59.15
2019-01-19T21:40:01.067Z,63.55
2019-01-19T21:42:31.561Z,61.05
2019-01-19T21:45:02.662Z,61.20
2019-01-19T21:47:32.999Z,67.40
2019-01-19T21:50:03.482Z,55.50
2019-01-19T21:52:33.912Z,53.05
2019-01-19T21:55:04.541Z,58.90
2019-01-19T21:57:35.140Z,63.05
2019-01-19T22:00:08.431Z,62.88
2019-01-19T22:02:38.752Z,62.45
2019-01-19T22:05:09.366Z,60.98
2019-01-19T22:07:39.691Z,58.50
2019-01-19T22:10:12.579Z,51.65
2019-01-19T22:12:42.923Z,86.22
2019-01-19T22:15:15.572Z,61.55
2019-01-19T22:17:45.898Z,48.95
2019-01-19T22:20:16.955Z,55.00
2019-01-19T22:22:47.423Z,47.10
2019-01-19T22:25:18.043Z,47.10
2019-01-19T22:27:49.611Z,54.05
2019-01-19T22:30:22.188Z,56.05
2019-01-19T22:32:54.370Z,41.95
2019-01-19T22:35:26.518Z,45.65
2019-01-19T22:37:57.122Z,55.33
2019-01-19T22:40:27.851Z,77.00
2019-01-19T22:43:00.688Z,62.43
2019-01-19T22:45:31.185Z,56.00
2019-01-19T22:48:01.559Z,57.33
2019-01-19T22:50:32.149Z,50.50
2019-01-19T22:53:02.395Z,61.13
2019-01-19T22:55:32.864Z,65.37
2019-01-19T22:58:02.666Z,73.85
2019-01-19T23:00:43.276Z,45.85
2019-01-19T23:03:13.601Z,54.42
2019-01-19T23:05:43.894Z,47.58
2019-01-19T23:08:14.236Z,53.23
2019-01-19T23:10:44.519Z,48.65
2019-01-19T23:13:15.064Z,46.60
2019-01-19T23:15:45.513Z,47.03
2019-01-19T23:18:15.310Z,50.73
2019-01-19T23:20:45.022Z,60.63
2019-01-19T23:23:15.191Z,58.90
2019-01-19T23:25:45.680Z,51.20
2019-01-19T23:28:16.064Z,57.78
2019-01-19T23:30:46.435Z,47.85
2019-01-19T23:33:16.814Z,49.90
2019-01-19T23:35:47.198Z,48.13
2019-01-19T23:38:17.688Z,41.20
2019-01-19T23:40:47.508Z,39.00
2019-01-19T23:43:17.011Z,51.45
2019-01-19T23:45:47.353Z,45.38
2019-01-19T23:48:17.834Z,48.52
2019-01-19T23:50:48.344Z,44.55
2019-01-19T23:58:21.287Z,52.75
